Time;durP1;ratioP1;P1;durP2;ratioP2;P2;SDS_P1;SDS_P2;PMS_P1;PMS_P2;Temp;Humidity;BMP_temperature;BMP_pressure;BME280_temperature;BME280_humidity;BME280_pressure;Samples;Min_cycle;Max_cycle;Signal;HPM_P1;HPM_P2
2022/06/09 00:02:23;;;;;;;51.78;16.75;;;;;;;;;;4963061;28;20038;-82
2022/06/09 00:04:49;;;;;;;60.47;16.33;;;;;;;;;;4979912;28;20429;-82
2022/06/09 00:07:17;;;;;;;71.78;17.52;;;;;;;;;;4970053;28;20393;-82
2022/06/09 00:09:50;;;;;;;70.82;18.85;;;;;;;;;;4970316;28;20129;-82
2022/06/09 00:12:16;;;;;;;70.38;19.40;;;;;;;;;;4964065;28;20516;-82
2022/06/09 00:14:42;;;;;;;63.65;17.63;;;;;;;;;;4969710;28;20039;-82
2022/06/09 00:17:08;;;;;;;65.50;17.67;;;;;;;;;;4969961;28;20070;-82
2022/06/09 00:19:37;;;;;;;67.35;19.60;;;;;;;;;;4977979;28;20461;-82
2022/06/09 00:22:03;;;;;;;83.30;20.30;;;;;;;;;;4979340;28;20520;-82
2022/06/09 00:24:33;;;;;;;77.97;19.88;;;;;;;;;;4985039;28;20030;-82
2022/06/09 00:26:59;;;;;;;94.10;19.70;;;;;;;;;;4964813;28;20129;-82
2022/06/09 00:29:25;;;;;;;81.68;18.20;;;;;;;;;;4970559;28;20129;-82
2022/06/09 00:31:51;;;;;;;84.22;19.45;;;;;;;;;;4963906;28;20023;-82
2022/06/09 00:34:17;;;;;;;70.43;17.13;;;;;;;;;;4970865;28;20460;-82
2022/06/09 00:36:43;;;;;;;96.35;20.52;;;;;;;;;;4985727;28;20040;-82
2022/06/09 00:39:09;;;;;;;90.32;19.20;;;;;;;;;;4968384;28;20064;-82
2022/06/09 00:41:39;;;;;;;82.38;20.17;;;;;;;;;;4966591;28;20523;-82
2022/06/09 00:44:21;;;;;;;81.35;19.45;;;;;;;;;;4979751;28;20050;-82
2022/06/09 00:46:49;;;;;;;90.03;19.10;;;;;;;;;;4966148;28;20291;-82
2022/06/09 00:49:24;;;;;;;81.95;19.63;;;;;;;;;;4980906;28;20038;-82
2022/06/09 00:51:54;;;;;;;72.40;17.63;;;;;;;;;;4983716;28;20033;-82
2022/06/09 00:54:22;;;;;;;70.40;18.67;;;;;;;;;;4980086;28;20506;-80
2022/06/09 00:56:53;;;;;;;75.05;19.05;;;;;;;;;;4982271;28;20505;-83
2022/06/09 00:59:21;;;;;;;91.70;18.30;;;;;;;;;;4966394;28;20031;-81
2022/06/09 01:01:48;;;;;;;92.78;19.30;;;;;;;;;;4977689;28;20482;-81
2022/06/09 01:04:16;;;;;;;72.80;16.17;;;;;;;;;;4967070;28;20030;-81
2022/06/09 01:06:53;;;;;;;81.35;18.25;;;;;;;;;;4977963;28;20034;-81
2022/06/09 01:09:22;;;;;;;93.32;19.23;;;;;;;;;;4980930;28;20406;-81
2022/06/09 01:11:52;;;;;;;98.50;18.60;;;;;;;;;;4969236;28;20078;-81
2022/06/09 01:14:20;;;;;;;78.50;18.92;;;;;;;;;;4984200;28;20431;-81
2022/06/09 01:17:12;;;;;;;91.47;19.63;;;;;;;;;;4964266;28;20117;-81
2022/06/09 01:19:44;;;;;;;96.18;20.80;;;;;;;;;;4971362;28;20421;-81
2022/06/09 01:22:10;;;;;;;86.72;18.30;;;;;;;;;;4981869;28;20045;-81
2022/06/09 01:24:58;;;;;;;88.38;19.85;;;;;;;;;;4963610;28;20026;-81
2022/06/09 01:27:40;;;;;;;90.05;19.80;;;;;;;;;;4967683;28;20494;-81
2022/06/09 01:30:15;;;;;;;88.22;18.70;;;;;;;;;;4960361;28;20466;-81
2022/06/09 01:32:49;;;;;;;78.05;18.52;;;;;;;;;;4967873;28;20101;-81
2022/06/09 01:35:28;;;;;;;95.20;19.88;;;;;;;;;;4979910;28;20034;-80
2022/06/09 01:37:57;;;;;;;91.63;19.65;;;;;;;;;;4976940;28;20034;-80
2022/06/09 01:40:23;;;;;;;90.80;19.42;;;;;;;;;;4967146;28;20042;-81
2022/06/09 01:42:51;;;;;;;97.60;20.38;;;;;;;;;;4966465;28;20316;-81
2022/06/09 01:45:26;;;;;;;98.47;18.40;;;;;;;;;;4982717;28;20058;-81
2022/06/09 01:48:13;;;;;;;87.80;20.45;;;;;;;;;;4985760;28;20084;-81
2022/06/09 01:50:39;;;;;;;84.30;19.33;;;;;;;;;;4965567;28;20023;-81
2022/06/09 01:53:11;;;;;;;101.72;20.58;;;;;;;;;;4962278;28;20038;-81
2022/06/09 01:55:44;;;;;;;75.13;20.35;;;;;;;;;;4968250;28;20478;-81
2022/06/09 01:58:11;;;;;;;89.05;18.27;;;;;;;;;;4960900;28;20491;-80
2022/06/09 02:00:37;;;;;;;92.13;19.83;;;;;;;;;;4964358;28;20037;-81
2022/06/09 02:03:05;;;;;;;105.13;18.98;;;;;;;;;;4979234;28;20522;-81
2022/06/09 02:05:38;;;;;;;83.45;19.70;;;;;;;;;;4967309;28;20551;-81
2022/06/09 02:08:05;;;;;;;84.45;19.83;;;;;;;;;;4982127;28;20018;-80
2022/06/09 02:10:33;;;;;;;96.15;22.25;;;;;;;;;;4983892;28;20027;-81
2022/06/09 02:13:02;;;;;;;98.05;22.95;;;;;;;;;;4964971;28;20022;-81
2022/06/09 02:15:32;;;;;;;87.75;21.85;;;;;;;;;;4962601;28;20089;-81
2022/06/09 02:17:58;;;;;;;95.38;22.05;;;;;;;;;;4963663;28;20612;-81
2022/06/09 02:20:24;;;;;;;89.18;20.15;;;;;;;;;;4967021;28;20060;-81
2022/06/09 02:22:50;;;;;;;87.30;22.10;;;;;;;;;;4965098;28;20522;-81
2022/06/09 02:25:17;;;;;;;101.13;23.55;;;;;;;;;;4983090;28;20493;-81
2022/06/09 02:27:43;;;;;;;97.35;24.42;;;;;;;;;;4963927;28;20398;-81
2022/06/09 02:30:10;;;;;;;84.18;24.20;;;;;;;;;;4963936;28;20641;-81
2022/06/09 02:32:36;;;;;;;107.35;23.75;;;;;;;;;;4961531;28;20046;-81
2022/06/09 02:35:02;;;;;;;109.18;23.30;;;;;;;;;;4963092;28;20022;-81
2022/06/09 02:37:29;;;;;;;100.15;23.80;;;;;;;;;;4975589;28;21538;-81
2022/06/09 02:39:54;;;;;;;73.43;23.38;;;;;;;;;;4970168;28;20371;-81
2022/06/09 02:42:21;;;;;;;95.22;22.63;;;;;;;;;;4962730;28;20121;-81
2022/06/09 02:44:46;;;;;;;94.85;23.90;;;;;;;;;;4964764;28;21276;-80
2022/06/09 02:47:20;;;;;;;86.40;21.25;;;;;;;;;;4966387;28;20132;-81
2022/06/09 02:49:46;;;;;;;109.75;23.35;;;;;;;;;;4959565;28;20030;-81
2022/06/09 02:52:12;;;;;;;107.03;23.83;;;;;;;;;;4964610;28;20066;-81
2022/06/09 02:54:38;;;;;;;87.53;23.00;;;;;;;;;;4969960;28;20454;-81
2022/06/09 02:57:05;;;;;;;78.35;22.13;;;;;;;;;;4984563;28;20057;-81
2022/06/09 02:59:31;;;;;;;81.38;21.80;;;;;;;;;;4965334;28;20483;-81
2022/06/09 03:01:57;;;;;;;109.43;24.27;;;;;;;;;;4966369;28;20083;-81
2022/06/09 03:04:23;;;;;;;86.88;22.95;;;;;;;;;;4967043;28;20037;-81
2022/06/09 03:06:49;;;;;;;89.55;22.35;;;;;;;;;;4978761;28;20035;-81
2022/06/09 03:09:15;;;;;;;104.18;25.33;;;;;;;;;;4978057;28;20037;-81
2022/06/09 03:11:41;;;;;;;101.72;25.45;;;;;;;;;;4963981;28;20534;-81
2022/06/09 03:14:10;;;;;;;86.13;24.17;;;;;;;;;;4981625;28;20031;-81
2022/06/09 03:16:36;;;;;;;92.57;24.25;;;;;;;;;;4965987;28;20058;-81
2022/06/09 03:19:02;;;;;;;88.40;23.85;;;;;;;;;;4964997;28;20030;-81
2022/06/09 03:21:28;;;;;;;97.45;24.10;;;;;;;;;;4965950;28;20039;-81
2022/06/09 03:23:55;;;;;;;90.82;24.00;;;;;;;;;;4965442;28;20092;-82
2022/06/09 03:26:22;;;;;;;96.43;25.70;;;;;;;;;;4965509;28;20035;-81
2022/06/09 03:28:48;;;;;;;91.25;23.85;;;;;;;;;;4986010;28;20070;-81
2022/06/09 03:31:14;;;;;;;80.47;25.55;;;;;;;;;;4975983;28;20042;-81
2022/06/09 03:33:40;;;;;;;90.18;23.90;;;;;;;;;;4984080;28;20490;-80
2022/06/09 03:36:08;;;;;;;80.22;24.55;;;;;;;;;;4980597;28;20617;-81
2022/06/09 03:38:34;;;;;;;99.05;25.75;;;;;;;;;;4965327;28;20510;-81
2022/06/09 03:41:00;;;;;;;82.15;24.23;;;;;;;;;;4979211;28;20513;-81
2022/06/09 03:43:26;;;;;;;90.47;25.15;;;;;;;;;;4979843;28;20056;-81
2022/06/09 03:45:52;;;;;;;102.03;25.88;;;;;;;;;;4966595;28;20084;-81
2022/06/09 03:48:18;;;;;;;95.53;24.95;;;;;;;;;;4979133;28;20034;-81
2022/06/09 03:50:44;;;;;;;98.55;25.08;;;;;;;;;;4962991;28;20050;-81
2022/06/09 03:53:11;;;;;;;91.13;24.42;;;;;;;;;;4978578;28;20471;-81
2022/06/09 03:55:37;;;;;;;105.85;25.02;;;;;;;;;;4961756;28;20566;-81
2022/06/09 03:58:03;;;;;;;80.85;24.80;;;;;;;;;;4979898;28;20026;-81
2022/06/09 04:00:30;;;;;;;87.55;25.42;;;;;;;;;;4960899;28;20070;-81
2022/06/09 04:02:56;;;;;;;107.07;26.85;;;;;;;;;;4962790;28;20046;-81
2022/06/09 04:05:23;;;;;;;94.80;26.05;;;;;;;;;;4964460;28;20379;-81
2022/06/09 04:07:49;;;;;;;98.65;27.35;;;;;;;;;;4971107;28;20038;-81
2022/06/09 04:10:17;;;;;;;97.28;26.63;;;;;;;;;;4963935;28;20650;-81
2022/06/09 04:12:43;;;;;;;92.32;28.75;;;;;;;;;;4969207;28;20093;-81
2022/06/09 04:15:10;;;;;;;83.25;27.02;;;;;;;;;;4963103;28;20030;-81
2022/06/09 04:17:36;;;;;;;99.70;25.63;;;;;;;;;;4965748;28;20100;-81
2022/06/09 04:20:02;;;;;;;100.68;29.58;;;;;;;;;;4981975;28;20382;-81
2022/06/09 04:22:28;;;;;;;104.55;29.38;;;;;;;;;;4962471;28;20398;-81
2022/06/09 04:24:55;;;;;;;105.95;27.35;;;;;;;;;;4977825;28;20034;-81
2022/06/09 04:27:21;;;;;;;101.15;28.27;;;;;;;;;;4965539;28;20145;-81
2022/06/09 04:29:48;;;;;;;105.15;28.02;;;;;;;;;;4969802;28;20065;-81
2022/06/09 04:32:14;;;;;;;106.85;29.33;;;;;;;;;;4965296;28;20026;-81
2022/06/09 04:34:40;;;;;;;100.32;28.17;;;;;;;;;;4985195;28;20080;-81
2022/06/09 04:37:06;;;;;;;113.55;29.77;;;;;;;;;;4967561;28;20125;-81
2022/06/09 04:39:32;;;;;;;98.57;26.30;;;;;;;;;;4962088;28;20119;-81
2022/06/09 04:41:58;;;;;;;96.78;30.05;;;;;;;;;;4965797;28;20509;-82
2022/06/09 04:44:24;;;;;;;89.50;27.50;;;;;;;;;;4965742;28;20040;-82
2022/06/09 04:46:50;;;;;;;81.88;26.27;;;;;;;;;;4977161;28;20026;-81
2022/06/09 04:49:16;;;;;;;82.40;24.92;;;;;;;;;;4979487;28;20442;-81
2022/06/09 04:51:42;;;;;;;65.93;24.58;;;;;;;;;;4970037;28;20438;-81
2022/06/09 04:54:08;;;;;;;77.35;25.02;;;;;;;;;;4977794;28;20517;-81
2022/06/09 04:56:36;;;;;;;86.03;28.08;;;;;;;;;;4967044;28;20029;-81
2022/06/09 04:59:03;;;;;;;91.50;27.38;;;;;;;;;;4980834;28;20038;-82
2022/06/09 05:01:30;;;;;;;68.95;25.13;;;;;;;;;;4987438;28;20437;-81
2022/06/09 05:03:56;;;;;;;82.60;25.50;;;;;;;;;;4966583;28;20130;-81
2022/06/09 05:06:23;;;;;;;95.38;26.17;;;;;;;;;;4970075;28;20033;-81
2022/06/09 05:08:50;;;;;;;80.68;27.33;;;;;;;;;;4967078;28;20834;-81
2022/06/09 05:11:16;;;;;;;77.82;26.08;;;;;;;;;;4965166;28;20054;-81
2022/06/09 05:13:43;;;;;;;83.70;26.83;;;;;;;;;;4982678;28;20391;-81
2022/06/09 05:16:09;;;;;;;89.28;28.05;;;;;;;;;;4964580;28;20394;-81
2022/06/09 05:18:37;;;;;;;78.28;27.73;;;;;;;;;;4980420;28;20031;-81
2022/06/09 05:21:03;;;;;;;83.07;28.55;;;;;;;;;;4964648;28;20034;-81
2022/06/09 05:23:30;;;;;;;105.47;30.63;;;;;;;;;;4978871;28;20049;-81
2022/06/09 05:25:57;;;;;;;88.35;30.35;;;;;;;;;;4964594;28;20488;-81
2022/06/09 05:28:24;;;;;;;92.05;27.30;;;;;;;;;;4966092;28;20442;-81
2022/06/09 05:30:50;;;;;;;79.43;27.15;;;;;;;;;;4980265;28;20466;-81
2022/06/09 05:33:16;;;;;;;84.28;27.15;;;;;;;;;;4967811;28;20387;-81
2022/06/09 05:35:42;;;;;;;71.30;25.73;;;;;;;;;;4967471;28;20041;-80
2022/06/09 05:46:26;;;;;;;48.78;19.70;;;;;;;;;;4976467;28;20140;-81
2022/06/09 05:48:53;;;;;;;60.55;23.52;;;;;;;;;;4985788;28;20026;-81
2022/06/09 05:51:19;;;;;;;56.92;23.02;;;;;;;;;;4966143;28;20053;-81
2022/06/09 05:53:45;;;;;;;65.38;24.77;;;;;;;;;;4980658;28;20034;-81
2022/06/09 05:56:12;;;;;;;63.88;23.15;;;;;;;;;;4963080;28;20034;-81
2022/06/09 05:58:38;;;;;;;55.97;24.17;;;;;;;;;;4965630;28;20038;-81
2022/06/09 06:01:06;;;;;;;65.57;24.67;;;;;;;;;;4964492;28;20041;-81
2022/06/09 06:03:32;;;;;;;51.55;21.30;;;;;;;;;;4968979;28;20046;-81
2022/06/09 06:08:43;;;;;;;59.38;22.83;;;;;;;;;;4982585;28;20053;-82
2022/06/09 06:11:09;;;;;;;59.25;24.25;;;;;;;;;;4964731;28;20394;-82
2022/06/09 06:13:38;;;;;;;55.85;23.77;;;;;;;;;;4973336;28;20026;-82
2022/06/09 06:16:04;;;;;;;53.60;22.05;;;;;;;;;;4976404;28;20529;-82
2022/06/09 06:18:31;;;;;;;49.53;20.05;;;;;;;;;;4963734;28;20030;-82
2022/06/09 06:20:57;;;;;;;50.42;23.48;;;;;;;;;;4965675;28;20037;-82
2022/06/09 06:23:23;;;;;;;47.72;21.30;;;;;;;;;;4963816;28;20042;-82
2022/06/09 06:25:50;;;;;;;51.45;22.85;;;;;;;;;;4976727;28;20445;-82
2022/06/09 06:28:16;;;;;;;48.33;22.05;;;;;;;;;;4967009;28;20137;-82
2022/06/09 06:30:42;;;;;;;43.42;21.13;;;;;;;;;;4964436;28;20026;-82
2022/06/09 06:33:08;;;;;;;36.15;18.00;;;;;;;;;;4964338;28;20033;-82
2022/06/09 06:35:34;;;;;;;43.75;21.23;;;;;;;;;;4964857;28;20026;-82
2022/06/09 06:38:00;;;;;;;33.75;17.65;;;;;;;;;;4961359;28;20077;-82
2022/06/09 06:40:27;;;;;;;28.73;14.48;;;;;;;;;;4965695;28;20437;-82
2022/06/09 06:43:00;;;;;;;26.83;15.95;;;;;;;;;;4966130;28;20512;-82
2022/06/09 06:45:27;;;;;;;28.77;18.10;;;;;;;;;;4968520;28;20050;-82
2022/06/09 06:47:53;;;;;;;38.30;18.10;;;;;;;;;;4963533;28;20058;-82
2022/06/09 06:50:19;;;;;;;35.47;17.45;;;;;;;;;;4963157;28;20066;-82
2022/06/09 06:52:45;;;;;;;38.42;20.13;;;;;;;;;;4962562;28;20038;-81
2022/06/09 06:55:14;;;;;;;34.40;18.92;;;;;;;;;;4965995;28;20034;-82
2022/06/09 06:57:40;;;;;;;36.33;18.35;;;;;;;;;;4963925;28;20569;-82
2022/06/09 07:00:07;;;;;;;32.17;18.45;;;;;;;;;;4964552;28;20513;-82
2022/06/09 07:02:33;;;;;;;31.58;17.42;;;;;;;;;;4961466;28;20565;-82
2022/06/09 07:05:02;;;;;;;28.30;15.88;;;;;;;;;;4968594;28;20390;-82
2022/06/09 07:07:28;;;;;;;23.42;14.60;;;;;;;;;;4960497;28;20322;-81
2022/06/09 07:09:54;;;;;;;22.25;13.20;;;;;;;;;;4979159;28;20534;-82
2022/06/09 07:12:20;;;;;;;26.25;13.75;;;;;;;;;;4955172;28;20133;-83
2022/06/09 07:14:46;;;;;;;20.48;12.63;;;;;;;;;;4975722;28;20037;-82
2022/06/09 07:17:12;;;;;;;21.52;14.02;;;;;;;;;;4976398;28;20121;-82
2022/06/09 07:19:38;;;;;;;19.70;12.10;;;;;;;;;;4967220;28;20739;-81
2022/06/09 07:22:06;;;;;;;21.65;11.48;;;;;;;;;;4965033;28;20430;-82
2022/06/09 07:24:32;;;;;;;23.08;12.55;;;;;;;;;;4967840;28;20367;-81
2022/06/09 07:26:58;;;;;;;18.60;10.82;;;;;;;;;;4975353;28;20057;-82
2022/06/09 07:29:25;;;;;;;20.40;9.32;;;;;;;;;;4967007;28;20149;-81
2022/06/09 07:31:51;;;;;;;18.23;10.50;;;;;;;;;;4962188;28;20493;-81
2022/06/09 07:34:17;;;;;;;16.60;9.52;;;;;;;;;;4961420;28;20574;-81
2022/06/09 07:36:43;;;;;;;15.70;8.65;;;;;;;;;;4965033;28;20038;-81
2022/06/09 07:39:16;;;;;;;14.43;7.65;;;;;;;;;;4967479;28;20113;-81
2022/06/09 07:41:42;;;;;;;13.32;8.45;;;;;;;;;;4968659;28;20486;-81
2022/06/09 07:44:09;;;;;;;11.43;6.90;;;;;;;;;;4983508;28;20077;-82
2022/06/09 07:46:42;;;;;;;14.52;7.80;;;;;;;;;;4979131;28;20043;-82
2022/06/09 07:49:08;;;;;;;9.57;6.43;;;;;;;;;;4967001;28;23337;-82
2022/06/09 07:51:34;;;;;;;14.10;6.53;;;;;;;;;;4966834;28;20130;-82
2022/06/09 07:54:01;;;;;;;12.93;7.13;;;;;;;;;;4968405;28;20062;-82
2022/06/09 07:56:27;;;;;;;9.57;5.43;;;;;;;;;;4963110;28;20566;-82
2022/06/09 07:58:53;;;;;;;8.55;3.80;;;;;;;;;;4965947;28;20026;-82
2022/06/09 08:01:20;;;;;;;8.25;4.32;;;;;;;;;;4962664;28;20050;-81
2022/06/09 08:03:49;;;;;;;6.72;3.95;;;;;;;;;;4969170;28;20034;-81
2022/06/09 08:06:16;;;;;;;7.68;4.30;;;;;;;;;;4963206;28;20034;-82
2022/06/09 08:08:42;;;;;;;7.60;3.95;;;;;;;;;;4969756;28;20026;-82
2022/06/09 08:11:09;;;;;;;4.85;3.03;;;;;;;;;;4984597;28;20053;-82
2022/06/09 08:13:35;;;;;;;4.75;3.17;;;;;;;;;;4965523;28;20105;-82
2022/06/09 08:16:02;;;;;;;6.70;2.78;;;;;;;;;;4965164;28;20027;-82
2022/06/09 08:18:28;;;;;;;5.75;3.15;;;;;;;;;;4964620;28;20023;-81
2022/06/09 08:20:55;;;;;;;5.13;4.25;;;;;;;;;;4971495;28;20065;-81
2022/06/09 08:23:22;;;;;;;6.00;2.50;;;;;;;;;;4979538;28;20125;-82
2022/06/09 08:25:49;;;;;;;7.85;2.53;;;;;;;;;;4968116;28;20433;-82
2022/06/09 08:28:18;;;;;;;5.70;2.70;;;;;;;;;;4970515;28;20447;-82
2022/06/09 08:30:44;;;;;;;6.72;2.55;;;;;;;;;;4968754;28;20407;-81
2022/06/09 08:33:10;;;;;;;6.30;2.72;;;;;;;;;;4968095;28;20615;-82
2022/06/09 08:35:37;;;;;;;5.45;2.38;;;;;;;;;;4961702;28;20101;-82
2022/06/09 08:38:04;;;;;;;4.20;2.05;;;;;;;;;;4954876;28;20034;-82
2022/06/09 08:40:33;;;;;;;10.40;3.20;;;;;;;;;;4965288;28;20682;-81
2022/06/09 08:43:23;;;;;;;5.78;1.85;;;;;;;;;;4962577;28;20426;-82
2022/06/09 08:45:53;;;;;;;5.30;2.30;;;;;;;;;;4955155;28;20544;-82
2022/06/09 08:48:21;;;;;;;6.78;1.90;;;;;;;;;;4958012;28;20065;-82
2022/06/09 08:51:01;;;;;;;5.50;1.77;;;;;;;;;;4981351;28;20080;-82
2022/06/09 08:53:40;;;;;;;2.70;1.42;;;;;;;;;;4965514;28;20034;-82
2022/06/09 08:56:13;;;;;;;5.38;1.80;;;;;;;;;;4977212;28;20045;-82
2022/06/09 08:58:45;;;;;;;2.72;1.90;;;;;;;;;;4970458;28;20117;-82
2022/06/09 09:01:12;;;;;;;6.13;2.00;;;;;;;;;;4976643;28;20473;-82
2022/06/09 09:03:41;;;;;;;4.97;1.48;;;;;;;;;;4978835;28;20077;-83
2022/06/09 09:06:15;;;;;;;9.75;2.00;;;;;;;;;;4965743;28;20109;-82
2022/06/09 09:08:41;;;;;;;1.50;1.20;;;;;;;;;;4985024;28;20022;-82
2022/06/09 09:11:08;;;;;;;2.92;1.17;;;;;;;;;;4981441;28;20406;-83
2022/06/09 09:14:06;;;;;;;7.28;1.48;;;;;;;;;;4962836;28;20065;-81
2022/06/09 09:16:35;;;;;;;2.03;1.50;;;;;;;;;;4924084;28;20038;-83
2022/06/09 09:19:15;;;;;;;6.80;1.25;;;;;;;;;;4969536;28;20126;-82
2022/06/09 09:21:47;;;;;;;6.22;1.40;;;;;;;;;;4966897;28;20034;-83
2022/06/09 09:24:32;;;;;;;2.17;1.33;;;;;;;;;;4983674;28;20026;-83
2022/06/09 09:27:01;;;;;;;2.85;1.70;;;;;;;;;;4976502;28;20038;-82
2022/06/09 09:29:46;;;;;;;7.32;2.03;;;;;;;;;;4978309;28;20054;-83
2022/06/09 09:32:14;;;;;;;7.63;1.40;;;;;;;;;;4962421;28;20446;-83
2022/06/09 09:34:42;;;;;;;5.80;1.83;;;;;;;;;;4968562;28;20034;-83
2022/06/09 09:37:14;;;;;;;5.03;1.25;;;;;;;;;;4981881;28;20019;-84
2022/06/09 09:39:47;;;;;;;2.47;1.10;;;;;;;;;;4966440;28;20429;-83
2022/06/09 09:42:16;;;;;;;6.65;1.38;;;;;;;;;;4964312;28;20045;-83
2022/06/09 09:44:57;;;;;;;5.07;1.50;;;;;;;;;;4983826;28;20034;-83
2022/06/09 09:47:27;;;;;;;5.90;1.55;;;;;;;;;;4952685;28;20491;-83
2022/06/09 09:49:55;;;;;;;2.40;1.00;;;;;;;;;;4968691;28;20050;-83
2022/06/09 09:52:34;;;;;;;8.90;1.40;;;;;;;;;;4981966;28;20549;-84
2022/06/09 09:55:00;;;;;;;16.23;4.05;;;;;;;;;;4969289;28;20034;-84
2022/06/09 09:57:28;;;;;;;7.35;1.55;;;;;;;;;;4964236;28;20022;-84
2022/06/09 09:59:55;;;;;;;12.15;1.80;;;;;;;;;;4968857;28;20026;-84
2022/06/09 10:11:00;;;;;;;3.78;1.25;;;;;;;;;;4982524;28;20084;-84
2022/06/09 10:13:31;;;;;;;10.60;1.20;;;;;;;;;;4983108;28;20191;-86
2022/06/09 10:15:57;;;;;;;3.03;1.10;;;;;;;;;;4967130;28;20046;-84
2022/06/09 10:18:24;;;;;;;3.53;1.00;;;;;;;;;;4968105;28;20776;-84
2022/06/09 10:21:08;;;;;;;7.88;1.50;;;;;;;;;;4965122;28;20441;-84
2022/06/09 10:23:46;;;;;;;8.27;1.58;;;;;;;;;;4964366;28;20044;-85
2022/06/09 10:26:15;;;;;;;3.67;1.15;;;;;;;;;;4963030;28;20093;-83
2022/06/09 10:29:01;;;;;;;8.35;1.60;;;;;;;;;;4968403;28;20093;-84
2022/06/09 10:31:33;;;;;;;6.32;1.40;;;;;;;;;;4960857;28;20031;-85
2022/06/09 10:34:23;;;;;;;3.80;1.48;;;;;;;;;;4970071;28;20137;-84
2022/06/09 10:36:52;;;;;;;2.53;1.40;;;;;;;;;;4974880;28;20110;-85
2022/06/09 10:39:38;;;;;;;8.10;1.90;;;;;;;;;;4963438;28;20035;-84
2022/06/09 10:42:09;;;;;;;8.27;2.33;;;;;;;;;;4974374;28;20023;-85
2022/06/09 10:44:39;;;;;;;7.68;1.60;;;;;;;;;;4966873;28;20920;-85
2022/06/09 10:56:19;;;;;;;6.50;1.48;;;;;;;;;;4960800;28;20033;-85
2022/06/09 10:59:05;;;;;;;2.45;1.27;;;;;;;;;;4937588;28;20086;-85
2022/06/09 11:01:32;;;;;;;5.65;1.30;;;;;;;;;;4960785;28;20110;-85
2022/06/09 11:03:59;;;;;;;3.50;1.42;;;;;;;;;;4961735;28;20042;-85
2022/06/09 11:06:34;;;;;;;11.05;1.88;;;;;;;;;;4967945;28;20080;-86
2022/06/09 11:09:03;;;;;;;8.85;1.88;;;;;;;;;;4966813;28;20434;-86
2022/06/09 11:11:32;;;;;;;6.68;1.25;;;;;;;;;;4965181;28;21151;-86
2022/06/09 11:14:03;;;;;;;5.65;1.55;;;;;;;;;;4969985;28;20053;-85
2022/06/09 11:16:58;;;;;;;6.95;1.70;;;;;;;;;;4962602;28;20386;-85
2022/06/09 11:19:34;;;;;;;7.28;1.50;;;;;;;;;;4986094;28;20089;-85
2022/06/09 11:22:00;;;;;;;;;;;;;;;;;;4972993;28;20567;-87
2022/06/09 11:24:32;;;;;;;10.15;1.58;;;;;;;;;;4986511;28;19936;-85
2022/06/09 11:27:08;;;;;;;6.75;1.65;;;;;;;;;;4970828;28;20433;-86
2022/06/09 11:29:46;;;;;;;11.18;1.60;;;;;;;;;;4970888;28;20371;-86
2022/06/09 11:32:19;;;;;;;6.80;1.95;;;;;;;;;;4962832;28;20113;-86
2022/06/09 11:34:54;;;;;;;8.07;1.50;;;;;;;;;;4964848;28;20039;-86
2022/06/09 11:37:42;;;;;;;3.00;1.52;;;;;;;;;;4966200;28;20034;-86
2022/06/09 11:40:27;;;;;;;7.72;1.83;;;;;;;;;;4965678;28;20042;-86
2022/06/09 11:42:53;;;;;;;12.23;2.22;;;;;;;;;;4968808;28;20037;-88
2022/06/09 11:45:32;;;;;;;7.05;1.92;;;;;;;;;;4969390;28;20026;-86
2022/06/09 11:47:59;;;;;;;6.57;1.50;;;;;;;;;;4970057;28;20050;-86
2022/06/09 11:50:30;;;;;;;5.65;1.50;;;;;;;;;;4971843;28;20383;-86
2022/06/09 11:52:58;;;;;;;8.45;1.50;;;;;;;;;;4970238;28;20361;-87
2022/06/09 11:58:21;;;;;;;7.53;1.80;;;;;;;;;;4987102;28;20041;-86
2022/06/09 12:00:47;;;;;;;;;;;;;;;;;;4966096;28;20414;-86
2022/06/09 12:03:24;;;;;;;6.28;1.67;;;;;;;;;;4961737;28;20787;-86
2022/06/09 12:05:57;;;;;;;4.75;1.48;;;;;;;;;;4969395;28;20030;-86
2022/06/09 12:08:45;;;;;;;5.65;1.90;;;;;;;;;;4969960;28;20030;-87
2022/06/09 12:11:14;;;;;;;6.43;1.40;;;;;;;;;;4981730;28;20459;-86
2022/06/09 12:13:54;;;;;;;6.68;1.20;;;;;;;;;;4971478;28;20019;-86
2022/06/09 12:16:26;;;;;;;10.98;1.92;;;;;;;;;;4986896;28;20038;-86
2022/06/09 12:19:01;;;;;;;3.92;1.33;;;;;;;;;;4968889;28;20041;-86
2022/06/09 12:21:29;;;;;;;4.38;1.25;;;;;;;;;;4972869;28;20030;-86
2022/06/09 12:23:55;;;;;;;9.20;1.73;;;;;;;;;;4977277;28;20129;-87
2022/06/09 12:26:30;;;;;;;7.35;1.80;;;;;;;;;;4969500;28;20458;-87
2022/06/09 12:28:59;;;;;;;6.38;2.20;;;;;;;;;;4971441;28;20061;-86
2022/06/09 12:31:27;;;;;;;3.88;1.30;;;;;;;;;;4970820;28;20022;-86
2022/06/09 12:34:13;;;;;;;5.13;1.27;;;;;;;;;;4967405;28;20026;-86
2022/06/09 12:36:42;;;;;;;3.05;1.20;;;;;;;;;;4982760;28;20042;-86
2022/06/09 12:39:20;;;;;;;8.70;1.85;;;;;;;;;;4965188;28;20084;-86
2022/06/09 12:41:54;;;;;;;3.65;1.38;;;;;;;;;;4965261;28;20044;-86
2022/06/09 12:44:23;;;;;;;8.18;2.28;;;;;;;;;;4962912;28;20034;-87
2022/06/09 12:47:04;;;;;;;9.75;1.92;;;;;;;;;;4971662;28;20042;-86
2022/06/09 12:49:32;;;;;;;5.03;1.67;;;;;;;;;;4966935;28;20034;-86
2022/06/09 12:51:58;;;;;;;4.28;1.50;;;;;;;;;;4969106;28;20047;-86
2022/06/09 12:54:28;;;;;;;4.88;1.15;;;;;;;;;;4968412;28;20041;-86
2022/06/09 12:57:07;;;;;;;4.45;1.58;;;;;;;;;;4965018;28;20422;-86
2022/06/09 12:59:35;;;;;;;4.63;1.25;;;;;;;;;;4981062;28;20034;-86
2022/06/09 13:02:02;;;;;;;8.38;1.50;;;;;;;;;;4981241;28;20438;-86
2022/06/09 13:04:29;;;;;;;4.47;1.20;;;;;;;;;;4965109;28;20039;-87
2022/06/09 13:06:56;;;;;;;3.40;1.00;;;;;;;;;;4963339;28;20034;-87
2022/06/09 13:09:31;;;;;;;9.15;1.40;;;;;;;;;;4960651;28;20081;-87
2022/06/09 13:14:44;;;;;;;5.22;1.77;;;;;;;;;;4982111;28;20041;-87
2022/06/09 13:17:23;;;;;;;4.40;1.40;;;;;;;;;;4966313;28;20026;-86
2022/06/09 13:20:12;;;;;;;3.35;1.50;;;;;;;;;;4964132;28;20038;-87
2022/06/09 13:22:38;;;;;;;4.97;1.38;;;;;;;;;;4964011;28;20575;-85
2022/06/09 13:25:05;;;;;;;4.45;1.73;;;;;;;;;;4962751;28;20030;-86
2022/06/09 13:27:32;;;;;;;3.28;1.10;;;;;;;;;;4967503;28;20520;-87
2022/06/09 13:30:05;;;;;;;3.67;1.13;;;;;;;;;;4976044;28;20466;-87
2022/06/09 13:32:43;;;;;;;4.47;1.10;;;;;;;;;;4961676;28;20335;-86
2022/06/09 13:35:38;;;;;;;6.43;1.40;;;;;;;;;;4981888;28;20018;-87
2022/06/09 13:38:23;;;;;;;5.35;1.27;;;;;;;;;;4957019;28;20502;-87
2022/06/09 13:41:19;;;;;;;4.35;2.30;;;;;;;;;;4960313;28;20046;-87
2022/06/09 13:43:54;;;;;;;8.80;1.67;;;;;;;;;;4949579;28;20450;-87
2022/06/09 13:46:24;;;;;;;10.95;1.63;;;;;;;;;;4975040;28;20226;-88
2022/06/09 13:49:19;;;;;;;4.00;1.33;;;;;;;;;;4958057;28;20089;-87
2022/06/09 13:52:03;;;;;;;4.85;1.50;;;;;;;;;;4960344;28;20049;-87
2022/06/09 13:54:39;;;;;;;2.08;0.88;;;;;;;;;;4961534;28;20034;-85
2022/06/09 13:57:12;;;;;;;5.55;1.23;;;;;;;;;;4967778;28;20042;-87
2022/06/09 13:59:38;;;;;;;4.43;1.27;;;;;;;;;;4966713;28;20120;-88
2022/06/09 14:02:04;;;;;;;7.00;1.55;;;;;;;;;;4967442;28;20085;-86
2022/06/09 14:04:34;;;;;;;3.50;1.55;;;;;;;;;;4966763;28;20027;-87
2022/06/09 14:07:00;;;;;;;1.83;0.95;;;;;;;;;;4973858;28;20393;-86
2022/06/09 14:09:27;;;;;;;6.35;1.00;;;;;;;;;;4962031;28;20084;-86
2022/06/09 14:11:53;;;;;;;4.63;1.10;;;;;;;;;;4984232;28;20508;-87
2022/06/09 14:14:20;;;;;;;3.92;1.38;;;;;;;;;;4971267;28;20026;-86
2022/06/09 14:16:47;;;;;;;7.53;1.20;;;;;;;;;;4984312;28;20444;-87
2022/06/09 14:19:17;;;;;;;5.22;1.10;;;;;;;;;;4971109;28;20638;-86
2022/06/09 14:21:45;;;;;;;2.45;0.80;;;;;;;;;;4960867;28;20121;-87
2022/06/09 14:24:18;;;;;;;10.00;1.95;;;;;;;;;;4966542;28;20034;-87
2022/06/09 14:26:45;;;;;;;2.05;1.40;;;;;;;;;;4959507;28;20046;-86
2022/06/09 14:29:13;;;;;;;5.55;2.55;;;;;;;;;;4969785;28;20505;-87
2022/06/09 14:31:39;;;;;;;2.13;0.88;;;;;;;;;;4965509;28;20029;-86
2022/06/09 14:34:05;;;;;;;3.92;1.30;;;;;;;;;;4963336;28;20022;-87
2022/06/09 14:36:32;;;;;;;5.90;1.67;;;;;;;;;;4965018;28;20041;-86
2022/06/09 14:38:59;;;;;;;8.05;1.55;;;;;;;;;;4965448;28;20133;-87
2022/06/09 14:41:26;;;;;;;4.43;0.88;;;;;;;;;;4963132;28;20038;-87
2022/06/09 14:43:52;;;;;;;6.57;1.50;;;;;;;;;;4962686;28;20035;-86
2022/06/09 14:46:22;;;;;;;4.65;1.30;;;;;;;;;;4959922;28;20092;-86
2022/06/09 14:48:48;;;;;;;2.13;1.30;;;;;;;;;;4971356;28;20057;-86
2022/06/09 14:51:14;;;;;;;2.65;1.20;;;;;;;;;;4990101;28;20018;-87
2022/06/09 14:53:41;;;;;;;2.35;1.10;;;;;;;;;;4966814;28;20668;-86
2022/06/09 14:56:07;;;;;;;2.70;0.95;;;;;;;;;;4961980;28;20327;-87
2022/06/09 14:58:33;;;;;;;3.97;1.35;;;;;;;;;;4985973;28;20030;-87
2022/06/09 15:00:59;;;;;;;6.55;1.48;;;;;;;;;;4964198;28;20030;-87
2022/06/09 15:03:26;;;;;;;9.57;1.75;;;;;;;;;;4979972;28;20106;-86
2022/06/09 15:05:52;;;;;;;1.85;1.33;;;;;;;;;;4964487;28;20046;-87
2022/06/09 15:08:19;;;;;;;8.90;1.92;;;;;;;;;;4962514;28;20039;-88
2022/06/09 15:10:47;;;;;;;4.35;1.42;;;;;;;;;;4968040;28;20447;-87
2022/06/09 15:13:14;;;;;;;5.60;1.50;;;;;;;;;;4964612;28;20575;-87
2022/06/09 15:15:41;;;;;;;3.55;1.30;;;;;;;;;;4958310;28;20026;-87
2022/06/09 15:18:08;;;;;;;10.48;1.75;;;;;;;;;;4955210;28;20065;-89